LFLU 221330Z AUTO 00000KT CAVOK 16/02 Q1030

ElémentsDécodage
LFLU Station météo située sur l'aérodrome de VALENCE Chabeuil
221330Z émis le 22 du mois à 13h30 UTC
AUTO Bulletin édité par un automate
00000KT vent nul
CAVOK Ceiling And Visibility OK
- Visibilité de 10 Km ou plus
- Pas de nuage au-dessous de 1500m ou au-dessous de l'altitude minimale du secteur la plus élevée (si>1500m) et absence de CB
- pas de temps présent significatif
16/02 température 16°C, point de rosée 02°C
 soit une humidité relative de 39%
Q1030 la pression au niveau de la mer (QNH) est de 1030 hPa